sensor_id;sensor_type;location;lat;lon;timestamp;pressure;altitude;pressure_sealevel;temperature;humidity
47274;BME280;33007;49.082;19.306;2022-09-03T00:02:27;96256.84;;;13.87;69.43
47274;BME280;33007;49.082;19.306;2022-09-03T00:05:12;96248.22;;;13.69;69.53
47274;BME280;33007;49.082;19.306;2022-09-03T00:07:48;96186.09;;;13.11;70.20
47274;BME280;33007;49.082;19.306;2022-09-03T00:10:24;96218.00;;;13.26;70.74
47274;BME280;33007;49.082;19.306;2022-09-03T00:12:56;96250.88;;;13.63;70.57
47274;BME280;33007;49.082;19.306;2022-09-03T00:15:24;96215.84;;;13.15;71.05
47274;BME280;33007;49.082;19.306;2022-09-03T00:18:02;96198.63;;;13.03;71.70
47274;BME280;33007;49.082;19.306;2022-09-03T00:20:40;96251.00;;;13.48;71.16
47274;BME280;33007;49.082;19.306;2022-09-03T00:23:10;96260.00;;;13.54;70.45
47274;BME280;33007;49.082;19.306;2022-09-03T00:28:50;96219.13;;;12.78;71.63
47274;BME280;33007;49.082;19.306;2022-09-03T00:31:24;96250.75;;;12.91;73.21
47274;BME280;33007;49.082;19.306;2022-09-03T00:33:57;96202.13;;;12.48;72.32
47274;BME280;33007;49.082;19.306;2022-09-03T00:36:34;96212.03;;;12.51;72.50
47274;BME280;33007;49.082;19.306;2022-09-03T00:39:17;96251.94;;;12.69;72.98
47274;BME280;33007;49.082;19.306;2022-09-03T00:50:16;96250.50;;;12.39;74.83
47274;BME280;33007;49.082;19.306;2022-09-03T00:53:10;96249.00;;;12.38;74.06
47274;BME280;33007;49.082;19.306;2022-09-03T00:56:06;96247.75;;;12.53;75.64
47274;BME280;33007;49.082;19.306;2022-09-03T01:01:33;96223.59;;;12.11;76.05
47274;BME280;33007;49.082;19.306;2022-09-03T01:15:19;96198.69;;;11.74;76.15
47274;BME280;33007;49.082;19.306;2022-09-03T01:20:40;96241.97;;;12.01;76.04
47274;BME280;33007;49.082;19.306;2022-09-03T01:29:02;96217.72;;;11.59;77.76
47274;BME280;33007;49.082;19.306;2022-09-03T01:44:31;96244.09;;;11.68;78.01
47274;BME280;33007;49.082;19.306;2022-09-03T01:47:03;96213.00;;;11.45;79.75
47274;BME280;33007;49.082;19.306;2022-09-03T01:53:11;96210.59;;;11.23;80.40
47274;BME280;33007;49.082;19.306;2022-09-03T01:58:44;96238.94;;;11.31;81.27
47274;BME280;33007;49.082;19.306;2022-09-03T02:01:27;96235.06;;;11.23;80.91
47274;BME280;33007;49.082;19.306;2022-09-03T02:03:55;96213.75;;;11.07;81.19
47274;BME280;33007;49.082;19.306;2022-09-03T02:06:25;96213.88;;;10.88;81.94
47274;BME280;33007;49.082;19.306;2022-09-03T02:08:51;96213.56;;;10.86;81.75
47274;BME280;33007;49.082;19.306;2022-09-03T02:11:17;96226.66;;;10.97;81.75
47274;BME280;33007;49.082;19.306;2022-09-03T02:13:46;96200.06;;;10.77;82.03
47274;BME280;33007;49.082;19.306;2022-09-03T02:16:16;96229.13;;;10.86;81.36
47274;BME280;33007;49.082;19.306;2022-09-03T02:18:49;96272.31;;;11.08;81.98
47274;BME280;33007;49.082;19.306;2022-09-03T02:21:17;96217.16;;;10.68;82.40
47274;BME280;33007;49.082;19.306;2022-09-03T02:23:44;96221.00;;;10.53;82.47
47274;BME280;33007;49.082;19.306;2022-09-03T02:26:12;96232.88;;;10.64;82.48
47274;BME280;33007;49.082;19.306;2022-09-03T02:28:38;96250.69;;;10.65;82.19
47274;BME280;33007;49.082;19.306;2022-09-03T02:31:04;96223.59;;;10.47;82.74
47274;BME280;33007;49.082;19.306;2022-09-03T02:33:37;96235.09;;;10.42;83.22
47274;BME280;33007;49.082;19.306;2022-09-03T02:36:06;96255.16;;;10.44;83.11
47274;BME280;33007;49.082;19.306;2022-09-03T02:38:32;96266.59;;;10.48;82.29
47274;BME280;33007;49.082;19.306;2022-09-03T02:40:58;96227.44;;;10.22;82.34
47274;BME280;33007;49.082;19.306;2022-09-03T02:43:44;96227.16;;;10.20;83.30
47274;BME280;33007;49.082;19.306;2022-09-03T02:46:24;96286.78;;;10.57;82.56
47274;BME280;33007;49.082;19.306;2022-09-03T02:48:52;96231.84;;;10.10;83.73
47274;BME280;33007;49.082;19.306;2022-09-03T02:51:18;96256.53;;;10.21;83.53
47274;BME280;33007;49.082;19.306;2022-09-03T02:53:44;96268.44;;;10.33;83.29
47274;BME280;33007;49.082;19.306;2022-09-03T02:56:10;96283.38;;;10.38;83.12
47274;BME280;33007;49.082;19.306;2022-09-03T02:58:36;96289.72;;;10.35;84.24
47274;BME280;33007;49.082;19.306;2022-09-03T03:01:02;96229.59;;;10.09;85.51
47274;BME280;33007;49.082;19.306;2022-09-03T03:03:28;96237.13;;;10.14;83.57
47274;BME280;33007;49.082;19.306;2022-09-03T03:05:56;96288.63;;;10.41;83.90
47274;BME280;33007;49.082;19.306;2022-09-03T03:08:24;96284.91;;;10.30;84.46
47274;BME280;33007;49.082;19.306;2022-09-03T03:10:54;96248.00;;;10.05;84.19
47274;BME280;33007;49.082;19.306;2022-09-03T03:13:27;96246.19;;;10.11;84.15
47274;BME280;33007;49.082;19.306;2022-09-03T03:16:01;96275.88;;;10.14;83.67
47274;BME280;33007;49.082;19.306;2022-09-03T03:18:27;96245.16;;;9.90;84.03
47274;BME280;33007;49.082;19.306;2022-09-03T03:20:52;96235.53;;;9.80;84.05
47274;BME280;33007;49.082;19.306;2022-09-03T03:23:19;96284.63;;;10.09;84.44
47274;BME280;33007;49.082;19.306;2022-09-03T03:25:44;96241.88;;;9.77;84.83
47274;BME280;33007;49.082;19.306;2022-09-03T03:28:10;96226.06;;;9.75;84.50
47274;BME280;33007;49.082;19.306;2022-09-03T03:30:37;96226.09;;;9.66;84.22
47274;BME280;33007;49.082;19.306;2022-09-03T03:33:05;96258.44;;;9.88;84.57
47274;BME280;33007;49.082;19.306;2022-09-03T03:35:31;96283.88;;;10.09;84.64
47274;BME280;33007;49.082;19.306;2022-09-03T03:37:57;96261.91;;;9.88;84.32
47274;BME280;33007;49.082;19.306;2022-09-03T03:40:23;96248.81;;;9.78;84.62
47274;BME280;33007;49.082;19.306;2022-09-03T03:42:49;96226.38;;;9.68;84.84
47274;BME280;33007;49.082;19.306;2022-09-03T03:45:15;96248.22;;;9.74;84.56
47274;BME280;33007;49.082;19.306;2022-09-03T03:47:40;96189.22;;;9.41;83.66
47274;BME280;33007;49.082;19.306;2022-09-03T03:50:06;96283.28;;;10.14;83.96
47274;BME280;33007;49.082;19.306;2022-09-03T03:52:32;96212.84;;;9.31;84.08
47274;BME280;33007;49.082;19.306;2022-09-03T03:54:58;96193.28;;;9.09;84.37
47274;BME280;33007;49.082;19.306;2022-09-03T03:57:23;96276.41;;;9.67;84.95
47274;BME280;33007;49.082;19.306;2022-09-03T03:59:49;96293.75;;;9.69;85.49
47274;BME280;33007;49.082;19.306;2022-09-03T04:02:15;96179.44;;;8.98;85.57
47274;BME280;33007;49.082;19.306;2022-09-03T04:04:41;96202.16;;;9.09;85.57
47274;BME280;33007;49.082;19.306;2022-09-03T04:07:07;96243.28;;;9.35;86.45
47274;BME280;33007;49.082;19.306;2022-09-03T04:09:33;96295.53;;;9.63;85.42
47274;BME280;33007;49.082;19.306;2022-09-03T04:11:59;96245.09;;;9.29;85.80
47274;BME280;33007;49.082;19.306;2022-09-03T04:14:25;96274.75;;;9.42;86.25
47274;BME280;33007;49.082;19.306;2022-09-03T04:16:52;96240.41;;;9.30;86.04
47274;BME280;33007;49.082;19.306;2022-09-03T04:19:17;96258.66;;;9.38;85.74
47274;BME280;33007;49.082;19.306;2022-09-03T04:21:43;96257.13;;;9.28;86.15
47274;BME280;33007;49.082;19.306;2022-09-03T04:24:09;96257.59;;;9.45;85.90
47274;BME280;33007;49.082;19.306;2022-09-03T04:26:35;96242.34;;;9.20;85.63
47274;BME280;33007;49.082;19.306;2022-09-03T04:29:06;96248.09;;;9.22;85.89
47274;BME280;33007;49.082;19.306;2022-09-03T04:31:32;96238.28;;;9.15;86.42
47274;BME280;33007;49.082;19.306;2022-09-03T04:33:58;96285.91;;;9.44;86.77
47274;BME280;33007;49.082;19.306;2022-09-03T04:36:26;96311.34;;;9.56;88.13
47274;BME280;33007;49.082;19.306;2022-09-03T04:38:53;96311.78;;;9.63;86.26
47274;BME280;33007;49.082;19.306;2022-09-03T04:41:25;96279.84;;;9.31;85.90
47274;BME280;33007;49.082;19.306;2022-09-03T04:43:52;96317.97;;;9.45;87.14
47274;BME280;33007;49.082;19.306;2022-09-03T04:46:19;96252.72;;;9.03;86.79
47274;BME280;33007;49.082;19.306;2022-09-03T04:48:50;96325.78;;;9.53;86.96
47274;BME280;33007;49.082;19.306;2022-09-03T04:51:16;96332.13;;;9.50;86.80
47274;BME280;33007;49.082;19.306;2022-09-03T04:53:45;96315.69;;;9.35;86.58
47274;BME280;33007;49.082;19.306;2022-09-03T04:56:26;96324.00;;;9.40;87.51
47274;BME280;33007;49.082;19.306;2022-09-03T04:59:06;96294.59;;;9.21;87.08
47274;BME280;33007;49.082;19.306;2022-09-03T05:01:33;96286.91;;;9.19;87.40
47274;BME280;33007;49.082;19.306;2022-09-03T05:03:59;96292.50;;;9.34;88.46
47274;BME280;33007;49.082;19.306;2022-09-03T05:06:27;96323.09;;;9.43;88.15
47274;BME280;33007;49.082;19.306;2022-09-03T05:08:56;96299.88;;;9.24;87.50
47274;BME280;33007;49.082;19.306;2022-09-03T05:11:23;96264.63;;;9.06;88.59
47274;BME280;33007;49.082;19.306;2022-09-03T05:13:51;96331.84;;;9.57;88.82
47274;BME280;33007;49.082;19.306;2022-09-03T05:16:17;96327.16;;;9.57;88.08
47274;BME280;33007;49.082;19.306;2022-09-03T05:18:43;96296.72;;;9.35;88.62
47274;BME280;33007;49.082;19.306;2022-09-03T05:21:13;96297.03;;;9.37;88.24
47274;BME280;33007;49.082;19.306;2022-09-03T05:23:42;96330.78;;;9.63;89.09
47274;BME280;33007;49.082;19.306;2022-09-03T05:26:15;96325.34;;;9.63;89.54
47274;BME280;33007;49.082;19.306;2022-09-03T05:28:42;96293.72;;;9.42;90.28
47274;BME280;33007;49.082;19.306;2022-09-03T05:31:14;96306.22;;;9.58;89.94
47274;BME280;33007;49.082;19.306;2022-09-03T05:33:48;96331.84;;;9.75;89.60
47274;BME280;33007;49.082;19.306;2022-09-03T05:36:17;96288.75;;;9.50;89.59
47274;BME280;33007;49.082;19.306;2022-09-03T05:38:44;96292.66;;;9.67;88.67
47274;BME280;33007;49.082;19.306;2022-09-03T05:41:11;96339.50;;;9.95;88.54
47274;BME280;33007;49.082;19.306;2022-09-03T05:43:37;96262.09;;;9.57;87.60
47274;BME280;33007;49.082;19.306;2022-09-03T05:46:05;96269.34;;;9.69;88.00
47274;BME280;33007;49.082;19.306;2022-09-03T05:48:33;96333.28;;;10.22;87.23
47274;BME280;33007;49.082;19.306;2022-09-03T05:51:06;96323.34;;;10.37;87.92
47274;BME280;33007;49.082;19.306;2022-09-03T05:53:34;96326.31;;;10.48;87.64
47274;BME280;33007;49.082;19.306;2022-09-03T05:56:03;96281.13;;;10.27;87.01
47274;BME280;33007;49.082;19.306;2022-09-03T05:58:41;96271.34;;;10.30;87.17
47274;BME280;33007;49.082;19.306;2022-09-03T06:01:18;96311.59;;;10.73;86.39
47274;BME280;33007;49.082;19.306;2022-09-03T06:03:45;96313.97;;;10.81;86.14
47274;BME280;33007;49.082;19.306;2022-09-03T06:06:12;96317.72;;;10.92;86.79
47274;BME280;33007;49.082;19.306;2022-09-03T06:08:39;96236.03;;;10.39;85.55
47274;BME280;33007;49.082;19.306;2022-09-03T06:11:07;96321.13;;;11.02;85.93
47274;BME280;33007;49.082;19.306;2022-09-03T06:13:34;96310.88;;;10.97;85.49
47274;BME280;33007;49.082;19.306;2022-09-03T06:16:02;96314.94;;;11.01;84.43
47274;BME280;33007;49.082;19.306;2022-09-03T06:18:28;96277.28;;;10.85;85.08
47274;BME280;33007;49.082;19.306;2022-09-03T06:23:21;96227.63;;;10.61;85.59
47274;BME280;33007;49.082;19.306;2022-09-03T06:25:46;96252.19;;;10.90;86.00
47274;BME280;33007;49.082;19.306;2022-09-03T06:28:12;96235.44;;;10.92;85.31
47274;BME280;33007;49.082;19.306;2022-09-03T06:30:37;96263.47;;;11.22;85.09
47274;BME280;33007;49.082;19.306;2022-09-03T06:33:03;96250.84;;;11.19;83.68
47274;BME280;33007;49.082;19.306;2022-09-03T06:35:28;96251.84;;;11.21;84.06
47274;BME280;33007;49.082;19.306;2022-09-03T06:37:55;96264.44;;;11.34;83.89
47274;BME280;33007;49.082;19.306;2022-09-03T06:40:20;96287.69;;;11.59;83.92
47274;BME280;33007;49.082;19.306;2022-09-03T06:42:57;96276.22;;;11.54;83.44
47274;BME280;33007;49.082;19.306;2022-09-03T06:45:27;96219.50;;;11.23;83.44
47274;BME280;33007;49.082;19.306;2022-09-03T06:47:53;96242.16;;;11.44;82.61
47274;BME280;33007;49.082;19.306;2022-09-03T06:50:19;96248.59;;;11.56;82.42
47274;BME280;33007;49.082;19.306;2022-09-03T06:52:50;96224.75;;;11.51;83.30
47274;BME280;33007;49.082;19.306;2022-09-03T06:55:17;96230.09;;;11.60;82.28
47274;BME280;33007;49.082;19.306;2022-09-03T06:57:42;96253.41;;;11.91;83.73
47274;BME280;33007;49.082;19.306;2022-09-03T07:00:08;96257.00;;;11.97;82.14
47274;BME280;33007;49.082;19.306;2022-09-03T07:02:34;96249.88;;;11.99;81.89
47274;BME280;33007;49.082;19.306;2022-09-03T07:05:00;96239.44;;;11.98;82.25
47274;BME280;33007;49.082;19.306;2022-09-03T07:07:25;96234.56;;;12.02;81.66
47274;BME280;33007;49.082;19.306;2022-09-03T07:09:51;96270.50;;;12.36;81.31
47274;BME280;33007;49.082;19.306;2022-09-03T07:12:17;96311.88;;;12.69;80.94
47274;BME280;33007;49.082;19.306;2022-09-03T07:14:45;96269.72;;;12.50;81.24
47274;BME280;33007;49.082;19.306;2022-09-03T07:17:10;96229.09;;;12.31;80.74
47274;BME280;33007;49.082;19.306;2022-09-03T07:19:36;96261.44;;;12.59;81.28
47274;BME280;33007;49.082;19.306;2022-09-03T07:22:01;96221.09;;;12.43;79.26
47274;BME280;33007;49.082;19.306;2022-09-03T07:24:27;96284.28;;;12.97;80.28
47274;BME280;33007;49.082;19.306;2022-09-03T07:26:53;96278.03;;;12.76;78.57
47274;BME280;33007;49.082;19.306;2022-09-03T07:29:19;96262.81;;;12.84;78.68
47274;BME280;33007;49.082;19.306;2022-09-03T07:31:45;96240.38;;;12.74;80.14
47274;BME280;33007;49.082;19.306;2022-09-03T07:34:12;96299.06;;;13.25;79.73
47274;BME280;33007;49.082;19.306;2022-09-03T07:36:46;96258.31;;;13.01;79.51
47274;BME280;33007;49.082;19.306;2022-09-03T07:39:13;96267.13;;;13.11;79.83
47274;BME280;33007;49.082;19.306;2022-09-03T07:41:40;96243.28;;;13.06;79.06
47274;BME280;33007;49.082;19.306;2022-09-03T07:44:08;96283.38;;;13.41;77.63
47274;BME280;33007;49.082;19.306;2022-09-03T07:46:35;96311.91;;;13.60;79.09
47274;BME280;33007;49.082;19.306;2022-09-03T07:49:02;96305.75;;;13.65;78.33
47274;BME280;33007;49.082;19.306;2022-09-03T07:51:31;96251.41;;;13.41;77.83
47274;BME280;33007;49.082;19.306;2022-09-03T07:53:59;96295.72;;;13.77;78.37
47274;BME280;33007;49.082;19.306;2022-09-03T07:56:27;96298.34;;;13.92;77.27
47274;BME280;33007;49.082;19.306;2022-09-03T07:58:55;96213.00;;;13.45;76.91
47274;BME280;33007;49.082;19.306;2022-09-03T08:01:24;96294.28;;;14.07;75.73
47274;BME280;33007;49.082;19.306;2022-09-03T08:03:51;96249.56;;;13.79;74.38
47274;BME280;33007;49.082;19.306;2022-09-03T08:06:19;96295.34;;;14.15;75.30
47274;BME280;33007;49.082;19.306;2022-09-03T08:08:46;96287.03;;;14.30;74.05
47274;BME280;33007;49.082;19.306;2022-09-03T08:11:13;96293.28;;;14.36;73.04
47274;BME280;33007;49.082;19.306;2022-09-03T08:13:44;96253.91;;;14.17;72.82
47274;BME280;33007;49.082;19.306;2022-09-03T08:16:12;96289.72;;;14.51;72.72
47274;BME280;33007;49.082;19.306;2022-09-03T08:18:38;96212.63;;;14.09;71.75
47274;BME280;33007;49.082;19.306;2022-09-03T08:21:06;96282.88;;;14.66;73.54
47274;BME280;33007;49.082;19.306;2022-09-03T08:23:35;96274.47;;;14.70;73.62
47274;BME280;33007;49.082;19.306;2022-09-03T08:26:02;96233.59;;;14.50;72.59
47274;BME280;33007;49.082;19.306;2022-09-03T08:28:28;96275.84;;;14.91;72.47
47274;BME280;33007;49.082;19.306;2022-09-03T08:30:54;96274.38;;;15.02;72.13
47274;BME280;33007;49.082;19.306;2022-09-03T08:33:21;96276.69;;;15.09;71.46
47274;BME280;33007;49.082;19.306;2022-09-03T08:36:08;96273.22;;;15.14;69.80
47274;BME280;33007;49.082;19.306;2022-09-03T08:38:35;96235.84;;;15.00;71.05
47274;BME280;33007;49.082;19.306;2022-09-03T08:41:09;96270.34;;;15.34;71.64
47274;BME280;33007;49.082;19.306;2022-09-03T08:46:31;96237.22;;;15.27;71.18
47274;BME280;33007;49.082;19.306;2022-09-03T08:48:59;96229.56;;;15.36;70.10
47274;BME280;33007;49.082;19.306;2022-09-03T08:51:25;96216.38;;;15.40;69.29
47274;BME280;33007;49.082;19.306;2022-09-03T08:53:56;96216.66;;;15.54;68.72
47274;BME280;33007;49.082;19.306;2022-09-03T08:56:27;96193.50;;;15.49;68.14
47274;BME280;33007;49.082;19.306;2022-09-03T08:58:53;96262.84;;;16.06;66.57
47274;BME280;33007;49.082;19.306;2022-09-03T09:07:20;96218.00;;;15.97;66.51
47274;BME280;33007;49.082;19.306;2022-09-03T09:10:16;96190.13;;;15.88;66.42
47274;BME280;33007;49.082;19.306;2022-09-03T09:13:03;96249.66;;;16.38;65.32
47274;BME280;33007;49.082;19.306;2022-09-03T09:15:47;96214.28;;;16.29;65.80
47274;BME280;33007;49.082;19.306;2022-09-03T09:18:58;96219.00;;;16.45;65.74
47274;BME280;33007;49.082;19.306;2022-09-03T09:21:52;96238.69;;;16.77;65.77
47274;BME280;33007;49.082;19.306;2022-09-03T09:24:24;96177.16;;;16.44;63.05
47274;BME280;33007;49.082;19.306;2022-09-03T09:26:59;96232.44;;;16.88;63.72
47274;BME280;33007;49.082;19.306;2022-09-03T09:29:31;96173.63;;;16.66;63.12
47274;BME280;33007;49.082;19.306;2022-09-03T09:31:57;96216.44;;;17.03;63.02
47274;BME280;33007;49.082;19.306;2022-09-03T09:34:24;96166.41;;;16.80;63.63
47274;BME280;33007;49.082;19.306;2022-09-03T09:36:52;96213.84;;;17.27;63.17
47274;BME280;33007;49.082;19.306;2022-09-03T09:39:18;96250.38;;;17.64;62.99
47274;BME280;33007;49.082;19.306;2022-09-03T09:42:03;96247.34;;;17.73;61.91
47274;BME280;33007;49.082;19.306;2022-09-03T09:44:32;96186.59;;;17.41;61.92
47274;BME280;33007;49.082;19.306;2022-09-03T09:47:11;96196.72;;;17.57;61.19
47274;BME280;33007;49.082;19.306;2022-09-03T09:49:58;96240.69;;;17.98;60.37
47274;BME280;33007;49.082;19.306;2022-09-03T09:52:26;96245.91;;;18.08;59.77
47274;BME280;33007;49.082;19.306;2022-09-03T09:55:06;96192.06;;;17.88;59.54
47274;BME280;33007;49.082;19.306;2022-09-03T09:57:33;96244.75;;;18.27;59.86
47274;BME280;33007;49.082;19.306;2022-09-03T10:02:46;96209.31;;;18.24;58.57
47274;BME280;33007;49.082;19.306;2022-09-03T10:07:55;96188.22;;;18.32;55.21
47274;BME280;33007;49.082;19.306;2022-09-03T10:10:22;96196.09;;;18.47;56.01
47274;BME280;33007;49.082;19.306;2022-09-03T10:13:10;96185.03;;;18.52;56.00
47274;BME280;33007;49.082;19.306;2022-09-03T10:15:48;96231.69;;;18.94;56.17
47274;BME280;33007;49.082;19.306;2022-09-03T10:23:38;96175.25;;;18.57;52.51
47274;BME280;33007;49.082;19.306;2022-09-03T10:26:13;96162.09;;;18.74;49.97
47274;BME280;33007;49.082;19.306;2022-09-03T10:28:41;96146.91;;;18.92;50.54
47274;BME280;33007;49.082;19.306;2022-09-03T10:33:50;96226.59;;;19.84;51.76
47274;BME280;33007;49.082;19.306;2022-09-03T10:38:50;96220.88;;;20.14;49.94
47274;BME280;33007;49.082;19.306;2022-09-03T10:47:20;96215.53;;;20.67;46.82
47274;BME280;33007;49.082;19.306;2022-09-03T10:50:22;96220.41;;;20.75;45.15
47274;BME280;33007;49.082;19.306;2022-09-03T10:53:12;96216.50;;;20.97;44.03
47274;BME280;33007;49.082;19.306;2022-09-03T10:58:22;96146.56;;;20.94;45.19
47274;BME280;33007;49.082;19.306;2022-09-03T11:01:01;96132.75;;;20.94;42.80
47274;BME280;33007;49.082;19.306;2022-09-03T11:08:52;96206.59;;;21.88;43.56
47274;BME280;33007;49.082;19.306;2022-09-03T11:11:36;96133.00;;;21.43;43.53
47274;BME280;33007;49.082;19.306;2022-09-03T11:14:10;96179.19;;;21.56;40.63
47274;BME280;33007;49.082;19.306;2022-09-03T11:16:46;96162.84;;;21.79;42.13
47274;BME280;33007;49.082;19.306;2022-09-03T11:19:16;96193.94;;;22.27;43.31
47274;BME280;33007;49.082;19.306;2022-09-03T11:21:43;96199.09;;;22.31;40.75
47274;BME280;33007;49.082;19.306;2022-09-03T11:24:24;96101.06;;;21.90;42.27
47274;BME280;33007;49.082;19.306;2022-09-03T11:27:01;96155.44;;;22.37;40.24
47274;BME280;33007;49.082;19.306;2022-09-03T11:29:47;96199.47;;;22.77;40.79
47274;BME280;33007;49.082;19.306;2022-09-03T11:32:24;96185.22;;;22.72;39.49
47274;BME280;33007;49.082;19.306;2022-09-03T11:34:53;96123.56;;;22.36;39.16
47274;BME280;33007;49.082;19.306;2022-09-03T11:37:22;96132.81;;;22.38;40.82
47274;BME280;33007;49.082;19.306;2022-09-03T11:40:05;96187.28;;;22.51;41.55
47274;BME280;33007;49.082;19.306;2022-09-03T11:42:37;96180.94;;;22.64;42.73
47274;BME280;33007;49.082;19.306;2022-09-03T11:47:48;96172.19;;;23.09;42.84
47274;BME280;33007;49.082;19.306;2022-09-03T11:52:51;96153.69;;;23.40;41.80
47274;BME280;33007;49.082;19.306;2022-09-03T11:55:32;96181.53;;;23.86;40.65
47274;BME280;33007;49.082;19.306;2022-09-03T11:58:09;96183.69;;;23.65;36.13
47274;BME280;33007;49.082;19.306;2022-09-03T12:00:36;96081.69;;;22.68;37.65
47274;BME280;33007;49.082;19.306;2022-09-03T12:03:04;96115.91;;;22.49;38.87
47274;BME280;33007;49.082;19.306;2022-09-03T12:09:13;96144.28;;;22.21;40.24
47274;BME280;33007;49.082;19.306;2022-09-03T12:22:16;96123.13;;;23.76;39.49
47274;BME280;33007;49.082;19.306;2022-09-03T12:24:43;96148.97;;;23.64;40.67
47274;BME280;33007;49.082;19.306;2022-09-03T12:27:31;96130.09;;;23.11;40.05
47274;BME280;33007;49.082;19.306;2022-09-03T12:30:00;96186.28;;;23.19;40.67
47274;BME280;33007;49.082;19.306;2022-09-03T12:32:33;96120.19;;;22.58;41.74
47274;BME280;33007;49.082;19.306;2022-09-03T12:35:17;96095.88;;;22.36;41.94
47274;BME280;33007;49.082;19.306;2022-09-03T12:37:44;96166.50;;;23.15;42.67
47274;BME280;33007;49.082;19.306;2022-09-03T12:40:17;96130.22;;;22.69;43.02
47274;BME280;33007;49.082;19.306;2022-09-03T12:42:45;96112.88;;;22.40;42.23
47274;BME280;33007;49.082;19.306;2022-09-03T12:45:12;96146.09;;;22.40;42.19
47274;BME280;33007;49.082;19.306;2022-09-03T12:47:41;96159.91;;;22.40;42.36
47274;BME280;33007;49.082;19.306;2022-09-03T12:50:18;96167.47;;;22.39;43.20
47274;BME280;33007;49.082;19.306;2022-09-03T12:52:45;96170.53;;;22.28;43.78
47274;BME280;33007;49.082;19.306;2022-09-03T13:00:41;96138.47;;;21.91;45.73
47274;BME280;33007;49.082;19.306;2022-09-03T13:05:54;96112.88;;;21.56;45.49
47274;BME280;33007;49.082;19.306;2022-09-03T13:08:46;96116.38;;;21.57;45.74
47274;BME280;33007;49.082;19.306;2022-09-03T13:11:15;96112.38;;;21.44;46.29
47274;BME280;33007;49.082;19.306;2022-09-03T13:13:59;96112.06;;;21.48;46.71
47274;BME280;33007;49.082;19.306;2022-09-03T13:17:06;96158.72;;;21.73;45.96
47274;BME280;33007;49.082;19.306;2022-09-03T13:22:38;96165.97;;;21.62;45.89
47274;BME280;33007;49.082;19.306;2022-09-03T13:27:51;96163.69;;;21.53;47.08
47274;BME280;33007;49.082;19.306;2022-09-03T13:30:21;96094.22;;;21.02;47.45
47274;BME280;33007;49.082;19.306;2022-09-03T13:36:12;96141.88;;;21.15;47.40
47274;BME280;33007;49.082;19.306;2022-09-03T13:38:58;96121.81;;;21.02;46.50
47274;BME280;33007;49.082;19.306;2022-09-03T13:41:37;96167.00;;;21.25;47.91
47274;BME280;33007;49.082;19.306;2022-09-03T13:44:43;96149.91;;;21.13;48.67
47274;BME280;33007;49.082;19.306;2022-09-03T13:47:47;96104.97;;;20.79;48.62
47274;BME280;33007;49.082;19.306;2022-09-03T13:50:42;96145.16;;;21.01;46.71
47274;BME280;33007;49.082;19.306;2022-09-03T13:56:20;96126.28;;;20.91;48.88
47274;BME280;33007;49.082;19.306;2022-09-03T13:58:54;96140.59;;;21.03;48.59
47274;BME280;33007;49.082;19.306;2022-09-03T14:01:41;96095.72;;;20.89;49.21
47274;BME280;33007;49.082;19.306;2022-09-03T14:04:21;96099.59;;;21.07;47.54
47274;BME280;33007;49.082;19.306;2022-09-03T14:07:05;96110.50;;;21.26;47.70
47274;BME280;33007;49.082;19.306;2022-09-03T14:09:53;96099.94;;;21.51;46.39
47274;BME280;33007;49.082;19.306;2022-09-03T14:13:06;96165.38;;;21.90;46.65
47274;BME280;33007;49.082;19.306;2022-09-03T14:15:42;96161.72;;;21.95;44.63
47274;BME280;33007;49.082;19.306;2022-09-03T14:20:58;96123.63;;;22.02;43.36
47274;BME280;33007;49.082;19.306;2022-09-03T14:23:44;96150.25;;;22.54;44.50
47274;BME280;33007;49.082;19.306;2022-09-03T14:26:29;96091.13;;;22.15;44.84
47274;BME280;33007;49.082;19.306;2022-09-03T14:34:59;96167.91;;;22.09;42.81
47274;BME280;33007;49.082;19.306;2022-09-03T14:51:24;96119.66;;;21.08;47.81
47274;BME280;33007;49.082;19.306;2022-09-03T14:54:13;96169.16;;;21.32;48.62
47274;BME280;33007;49.082;19.306;2022-09-03T14:59:48;96105.47;;;20.77;49.72
47274;BME280;33007;49.082;19.306;2022-09-03T15:02:42;96156.94;;;21.01;51.99
47274;BME280;33007;49.082;19.306;2022-09-03T15:07:48;96105.41;;;20.56;47.86
47274;BME280;33007;49.082;19.306;2022-09-03T15:10:37;96162.38;;;20.93;47.92
47274;BME280;33007;49.082;19.306;2022-09-03T15:13:23;96162.38;;;20.93;48.98
47274;BME280;33007;49.082;19.306;2022-09-03T15:16:07;96170.72;;;21.14;48.32
47274;BME280;33007;49.082;19.306;2022-09-03T15:18:55;96118.69;;;22.08;45.67
47274;BME280;33007;49.082;19.306;2022-09-03T15:35:36;96170.72;;;23.16;43.05
47274;BME280;33007;49.082;19.306;2022-09-03T15:38:17;96135.78;;;23.05;41.87
47274;BME280;33007;49.082;19.306;2022-09-03T15:43:28;96126.31;;;23.29;43.13
47274;BME280;33007;49.082;19.306;2022-09-03T15:46:01;96133.56;;;23.47;42.76
47274;BME280;33007;49.082;19.306;2022-09-03T15:49:00;96158.38;;;23.61;42.19
47274;BME280;33007;49.082;19.306;2022-09-03T15:51:35;96162.53;;;23.39;42.17
47274;BME280;33007;49.082;19.306;2022-09-03T15:54:22;96089.53;;;22.85;44.17
47274;BME280;33007;49.082;19.306;2022-09-03T15:57:04;96140.00;;;22.91;42.46
47274;BME280;33007;49.082;19.306;2022-09-03T15:59:36;96167.47;;;22.89;44.20
47274;BME280;33007;49.082;19.306;2022-09-03T16:12:39;96170.19;;;22.11;47.11
47274;BME280;33007;49.082;19.306;2022-09-03T16:15:13;96096.66;;;21.53;47.06
47274;BME280;33007;49.082;19.306;2022-09-03T16:18:09;96171.34;;;21.81;48.45
47274;BME280;33007;49.082;19.306;2022-09-03T16:21:01;96178.53;;;21.63;50.26
47274;BME280;33007;49.082;19.306;2022-09-03T16:26:30;96132.00;;;21.07;51.21
47274;BME280;33007;49.082;19.306;2022-09-03T16:28:59;96125.44;;;20.83;52.78
47274;BME280;33007;49.082;19.306;2022-09-03T16:31:42;96187.75;;;21.05;53.42
47274;BME280;33007;49.082;19.306;2022-09-03T16:42:43;96177.75;;;20.62;55.00